createdAt,value
2022-11-21T00:00:56.011Z,30.70
2022-11-21T00:03:25.244Z,27.13
2022-11-21T00:05:52.948Z,29.10
2022-11-21T00:08:21.920Z,29.57
2022-11-21T00:10:49.992Z,23.70
2022-11-21T00:13:19.456Z,26.10
2022-11-21T00:15:47.288Z,30.13
2022-11-21T00:18:14.935Z,28.53
2022-11-21T00:20:44.431Z,25.17
2022-11-21T00:23:12.376Z,24.97
2022-11-21T00:25:40.193Z,22.17
2022-11-21T00:28:07.678Z,26.77
2022-11-21T00:30:35.133Z,27.57
2022-11-21T00:33:02.610Z,25.53
2022-11-21T00:35:31.872Z,26.67
2022-11-21T00:38:00.796Z,26.90
2022-11-21T00:40:28.276Z,24.47
2022-11-21T00:42:55.740Z,24.80
2022-11-21T00:45:24.645Z,23.03
2022-11-21T00:47:54.956Z,25.83
2022-11-21T00:50:22.420Z,25.13
2022-11-21T00:52:49.880Z,24.87
2022-11-21T00:55:18.747Z,25.73
2022-11-21T00:57:46.258Z,25.63
2022-11-21T01:00:15.173Z,26.53
2022-11-21T01:02:42.682Z,24.57
2022-11-21T01:05:10.358Z,28.33
2022-11-21T01:07:37.886Z,23.57
2022-11-21T01:10:06.536Z,24.23
2022-11-21T01:12:35.389Z,27.20
2022-11-21T01:15:02.976Z,27.47
2022-11-21T01:17:33.035Z,26.50
2022-11-21T01:20:00.606Z,26.33
2022-11-21T01:22:28.175Z,23.43
2022-11-21T01:24:55.657Z,23.80
2022-11-21T01:27:23.138Z,21.57
2022-11-21T01:29:52.624Z,23.17
2022-11-21T01:32:20.130Z,22.27
2022-11-21T01:34:48.001Z,26.77
2022-11-21T01:37:15.505Z,21.60
2022-11-21T01:39:42.954Z,29.70
2022-11-21T01:42:13.540Z,24.50
2022-11-21T01:44:50.488Z,25.77
2022-11-21T01:47:19.646Z,20.50
2022-11-21T01:49:47.999Z,21.63
2022-11-21T01:52:19.170Z,19.83
2022-11-21T01:54:50.227Z,21.90
2022-11-21T01:57:21.575Z,19.03
2022-11-21T01:59:52.162Z,19.43
2022-11-21T02:02:22.509Z,21.23
2022-11-21T02:04:50.776Z,16.17
2022-11-21T02:07:20.617Z,19.93
2022-11-21T02:09:51.922Z,17.47
2022-11-21T02:12:24.175Z,15.73
2022-11-21T02:14:52.935Z,20.77
2022-11-21T02:17:22.335Z,19.97
2022-11-21T02:19:53.833Z,20.83
2022-11-21T02:22:27.548Z,19.20
2022-11-21T02:25:05.380Z,18.37
2022-11-21T02:27:33.332Z,17.70
2022-11-21T02:30:02.080Z,20.03
2022-11-21T02:32:34.501Z,17.87
2022-11-21T02:35:02.063Z,17.30
2022-11-21T02:37:30.070Z,20.60
2022-11-21T02:40:00.250Z,16.47
2022-11-21T02:42:32.698Z,17.90
2022-11-21T02:45:05.151Z,16.47
2022-11-21T02:47:33.600Z,19.43
2022-11-21T02:50:04.672Z,15.90
2022-11-21T02:52:32.161Z,14.87
2022-11-21T02:54:59.646Z,16.20
2022-11-21T02:57:27.130Z,18.90
2022-11-21T02:59:55.948Z,19.60
2022-11-21T03:02:23.464Z,15.83
2022-11-21T03:04:51.028Z,15.50
2022-11-21T03:07:18.537Z,15.17
2022-11-21T03:09:46.104Z,16.80
2022-11-21T03:12:13.612Z,13.80
2022-11-21T03:14:41.148Z,16.80
2022-11-21T03:17:10.000Z,17.60
2022-11-21T03:19:37.638Z,21.20
2022-11-21T03:22:05.375Z,14.97
2022-11-21T03:24:32.959Z,17.70
2022-11-21T03:27:00.469Z,15.27
2022-11-21T03:29:27.949Z,15.90
2022-11-21T03:31:55.414Z,14.83
2022-11-21T03:34:25.319Z,15.47
2022-11-21T03:36:53.050Z,18.23
2022-11-21T03:39:23.459Z,15.50
2022-11-21T03:41:50.917Z,19.67
2022-11-21T03:44:18.506Z,15.77
2022-11-21T03:46:47.480Z,18.30
2022-11-21T03:49:16.557Z,17.07
2022-11-21T03:51:45.800Z,16.23
2022-11-21T03:54:13.565Z,15.07
2022-11-21T03:56:41.056Z,14.30
2022-11-21T03:59:08.580Z,15.60
2022-11-21T04:01:37.057Z,19.70
2022-11-21T04:04:05.132Z,15.43
2022-11-21T04:06:32.660Z,16.57
2022-11-21T04:09:01.466Z,18.30
2022-11-21T04:11:28.957Z,14.20
2022-11-21T04:13:56.551Z,16.90
2022-11-21T04:16:24.042Z,15.77
2022-11-21T04:18:51.785Z,16.57
2022-11-21T04:21:19.292Z,16.67
2022-11-21T04:23:46.750Z,20.30
2022-11-21T04:26:15.616Z,17.30
2022-11-21T04:28:43.099Z,17.83
2022-11-21T04:31:11.535Z,18.00
2022-11-21T04:33:39.694Z,15.80
2022-11-21T04:36:07.935Z,15.90
2022-11-21T04:38:35.487Z,22.20
2022-11-21T04:41:02.996Z,19.53
2022-11-21T04:43:31.870Z,29.53
2022-11-21T04:45:59.317Z,20.23
2022-11-21T04:48:26.869Z,21.80
2022-11-21T04:50:54.328Z,21.23
2022-11-21T04:53:21.917Z,18.20
2022-11-21T04:55:49.451Z,19.57
2022-11-21T04:58:16.930Z,18.37
2022-11-21T05:00:45.865Z,20.60
2022-11-21T05:03:13.316Z,21.77
2022-11-21T05:05:41.034Z,20.87
2022-11-21T05:08:08.522Z,24.50
2022-11-21T05:10:56.023Z,20.80
2022-11-21T05:13:22.595Z,20.97
2022-11-21T05:15:57.544Z,19.23
2022-11-21T05:18:25.093Z,21.20
2022-11-21T05:20:52.553Z,19.67
2022-11-21T05:23:20.087Z,23.67
2022-11-21T05:25:47.592Z,39.30
2022-11-21T05:28:15.080Z,20.73
2022-11-21T05:30:42.604Z,18.47
2022-11-21T05:33:11.605Z,22.50
2022-11-21T05:35:43.140Z,21.83
2022-11-21T05:38:11.102Z,21.33
2022-11-21T05:40:38.712Z,22.67
2022-11-21T05:43:23.831Z,25.90
2022-11-21T05:45:51.720Z,19.90
2022-11-21T05:48:20.619Z,19.97
2022-11-21T05:50:49.672Z,24.53
2022-11-21T05:53:17.705Z,22.70
2022-11-21T05:55:45.562Z,23.13
2022-11-21T05:58:13.349Z,21.17
2022-11-21T06:00:40.985Z,25.13
2022-11-21T06:03:28.266Z,25.07
2022-11-21T06:06:02.031Z,22.80
2022-11-21T06:08:30.888Z,24.60
2022-11-21T06:10:58.457Z,24.73
2022-11-21T06:13:26.079Z,29.10
2022-11-21T06:15:56.986Z,26.97
2022-11-21T06:18:24.600Z,28.30
2022-11-21T06:20:52.606Z,28.50
2022-11-21T06:23:21.735Z,26.53
2022-11-21T06:25:49.292Z,25.57
2022-11-21T06:28:16.853Z,34.77
2022-11-21T06:30:46.243Z,28.27
2022-11-21T06:33:13.873Z,25.83
2022-11-21T06:35:41.562Z,33.27
2022-11-21T06:38:09.283Z,31.03
2022-11-21T06:40:38.176Z,32.37
2022-11-21T06:43:05.861Z,30.47
2022-11-21T06:45:34.220Z,32.43
2022-11-21T06:48:02.654Z,27.57
2022-11-21T06:50:31.194Z,31.37
2022-11-21T06:52:59.472Z,43.00
2022-11-21T06:55:27.655Z,35.50
2022-11-21T06:57:59.774Z,30.23
2022-11-21T07:00:28.002Z,33.17
2022-11-21T07:03:01.628Z,30.70
2022-11-21T07:05:31.197Z,31.33
2022-11-21T07:07:59.746Z,36.43
2022-11-21T07:10:27.548Z,33.53
2022-11-21T07:13:16.728Z,37.43
2022-11-21T07:15:44.969Z,42.00
2022-11-21T07:18:12.558Z,44.60
2022-11-21T07:20:40.274Z,43.63
2022-11-21T07:23:08.547Z,43.90
2022-11-21T07:25:37.060Z,51.10
2022-11-21T07:28:07.728Z,40.47
2022-11-21T07:30:35.755Z,46.10
2022-11-21T07:33:05.329Z,45.63
2022-11-21T07:35:34.051Z,44.23
2022-11-21T07:38:01.642Z,44.27
2022-11-21T07:40:29.592Z,42.17
2022-11-21T07:43:04.436Z,41.47
2022-11-21T07:45:37.055Z,51.60
2022-11-21T07:48:06.169Z,47.33
2022-11-21T07:50:33.910Z,41.93
2022-11-21T07:53:02.911Z,41.93
2022-11-21T07:55:33.221Z,43.57
2022-11-21T07:58:04.263Z,39.80
2022-11-21T08:00:33.007Z,43.97
2022-11-21T08:03:01.912Z,42.60
2022-11-21T08:05:29.551Z,41.27
2022-11-21T08:07:57.083Z,41.20
2022-11-21T08:10:24.913Z,41.17
2022-11-21T08:12:52.467Z,39.23
2022-11-21T08:15:20.026Z,43.83
2022-11-21T08:17:47.947Z,47.50
2022-11-21T08:20:17.177Z,45.93
2022-11-21T08:22:44.790Z,53.50
2022-11-21T08:25:12.430Z,48.40
2022-11-21T08:27:40.321Z,48.17
2022-11-21T08:30:09.728Z,47.73
2022-11-21T08:32:37.452Z,58.03
2022-11-21T08:35:05.535Z,50.73
2022-11-21T08:37:34.459Z,60.07
2022-11-21T08:40:02.409Z,55.10
2022-11-21T08:42:30.017Z,54.30
2022-11-21T08:44:57.594Z,50.80
2022-11-21T08:47:25.444Z,54.10
2022-11-21T08:49:53.091Z,48.00
2022-11-21T08:52:20.773Z,44.50
2022-11-21T08:54:49.740Z,57.93
2022-11-21T08:57:17.522Z,48.77
2022-11-21T08:59:45.234Z,47.83
2022-11-21T09:02:12.960Z,41.27
2022-11-21T09:04:40.611Z,52.50
2022-11-21T09:07:08.411Z,39.90
2022-11-21T09:09:36.177Z,41.17
2022-11-21T09:12:05.702Z,38.37
2022-11-21T09:14:50.871Z,46.23
2022-11-21T09:17:36.335Z,43.37
2022-11-21T09:20:05.882Z,37.23
2022-11-21T09:22:33.551Z,35.10
2022-11-21T09:25:01.311Z,39.90
2022-11-21T09:27:31.131Z,37.43
2022-11-21T09:29:59.433Z,37.30
2022-11-21T09:32:27.168Z,35.10
2022-11-21T09:34:54.876Z,35.30
2022-11-21T09:37:22.574Z,33.13
2022-11-21T09:39:50.407Z,38.77
2022-11-21T09:42:38.125Z,34.77
2022-11-21T09:45:09.413Z,33.60
2022-11-21T09:47:38.719Z,30.33
2022-11-21T09:50:26.245Z,34.23
2022-11-21T09:52:58.179Z,34.60
2022-11-21T09:55:30.464Z,35.67
2022-11-21T09:58:03.363Z,29.13
2022-11-21T10:00:31.436Z,32.10
2022-11-21T10:02:59.405Z,28.43
2022-11-21T10:05:33.863Z,32.77
2022-11-21T10:08:08.528Z,25.30
2022-11-21T10:10:49.130Z,27.97
2022-11-21T10:13:26.751Z,24.67
2022-11-21T10:15:59.470Z,26.50
2022-11-21T10:18:54.337Z,31.20
2022-11-21T10:21:48.202Z,23.50
2022-11-21T10:24:27.021Z,23.20
2022-11-21T10:26:57.003Z,21.23
2022-11-21T10:29:27.912Z,24.87
2022-11-21T10:31:57.462Z,25.80
2022-11-21T10:34:27.360Z,22.93
2022-11-21T10:36:57.347Z,20.70
2022-11-21T10:39:30.251Z,19.37
2022-11-21T10:42:02.432Z,18.03
2022-11-21T10:44:49.363Z,15.93
2022-11-21T10:47:27.341Z,21.03
2022-11-21T10:50:01.213Z,17.83
2022-11-21T10:52:32.696Z,19.40
2022-11-21T10:55:06.003Z,20.33
2022-11-21T10:57:37.817Z,18.63
2022-11-21T11:00:21.133Z,15.83
2022-11-21T11:03:05.478Z,24.00
2022-11-21T11:05:34.444Z,17.90
2022-11-21T11:08:05.593Z,13.50
2022-11-21T11:10:34.494Z,14.80
2022-11-21T11:16:16.727Z,13.43
2022-11-21T11:18:48.966Z,12.30
2022-11-21T11:21:18.996Z,12.97
2022-11-21T11:23:47.163Z,14.70
2022-11-21T11:26:22.505Z,14.57
2022-11-21T11:28:50.268Z,14.90
2022-11-21T11:31:19.301Z,14.00
2022-11-21T11:34:03.923Z,15.17
2022-11-21T11:36:40.614Z,12.00
2022-11-21T11:39:15.755Z,10.70
2022-11-21T11:42:16.977Z,13.07
2022-11-21T11:45:08.860Z,11.90
2022-11-21T11:47:50.242Z,12.57
2022-11-21T11:50:25.949Z,12.30
2022-11-21T11:53:00.565Z,11.93
2022-11-21T11:55:33.710Z,10.70
2022-11-21T11:58:03.545Z,13.00
2022-11-21T12:00:36.393Z,10.57
2022-11-21T12:03:12.278Z,10.33
2022-11-21T12:05:52.107Z,9.30
2022-11-21T12:08:41.866Z,9.83
2022-11-21T12:11:37.708Z,8.17
2022-11-21T12:14:13.150Z,6.43
2022-11-21T12:16:42.385Z,7.70
2022-11-21T12:19:14.001Z,6.87
2022-11-21T12:21:41.608Z,8.93
2022-11-21T12:24:10.945Z,24.53
2022-11-21T12:26:48.433Z,12.97
2022-11-21T12:29:32.333Z,16.20
2022-11-21T12:32:15.812Z,15.73
2022-11-21T12:34:58.799Z,16.83
2022-11-21T12:37:35.162Z,12.00
2022-11-21T12:40:10.977Z,13.60
2022-11-21T12:42:51.500Z,13.73
2022-11-21T12:45:28.846Z,13.90
2022-11-21T12:48:47.078Z,13.17
2022-11-21T12:51:54.458Z,12.37
2022-11-21T12:54:51.292Z,16.30
2022-11-21T12:57:19.920Z,13.97
2022-11-21T12:59:53.580Z,12.63
2022-11-21T13:02:35.854Z,12.83
2022-11-21T13:05:05.481Z,11.00
2022-11-21T13:07:34.754Z,12.10
2022-11-21T13:10:04.514Z,10.67
2022-11-21T13:12:40.420Z,10.13
2022-11-21T13:15:19.218Z,12.40
2022-11-21T13:17:52.301Z,9.53
2022-11-21T13:20:25.246Z,12.30
2022-11-21T13:22:55.944Z,11.20
2022-11-21T13:25:47.367Z,10.97
2022-11-21T13:28:39.363Z,12.93
2022-11-21T13:31:28.360Z,11.43
2022-11-21T13:33:56.314Z,14.10
2022-11-21T13:36:38.880Z,11.80
2022-11-21T13:39:35.681Z,11.13
2022-11-21T13:42:26.531Z,14.67
2022-11-21T13:44:54.340Z,12.10
2022-11-21T13:48:13.767Z,13.30
2022-11-21T13:51:09.607Z,16.07
2022-11-21T13:53:58.376Z,17.37
2022-11-21T13:56:35.946Z,20.97
2022-11-21T13:59:13.260Z,13.10
2022-11-21T14:01:55.370Z,15.30
2022-11-21T14:04:58.388Z,18.03
2022-11-21T14:07:29.912Z,14.27
2022-11-21T14:09:58.742Z,16.87
2022-11-21T14:12:38.324Z,13.43
2022-11-21T14:15:21.079Z,15.00
2022-11-21T14:17:50.388Z,13.23
2022-11-21T14:20:21.041Z,13.03
2022-11-21T14:22:58.500Z,12.70
2022-11-21T14:25:43.637Z,14.33
2022-11-21T14:28:15.420Z,12.47
2022-11-21T14:30:44.891Z,11.80
2022-11-21T14:33:26.583Z,12.80
2022-11-21T14:35:56.597Z,11.60
2022-11-21T14:38:25.011Z,12.10
2022-11-21T14:41:13.538Z,14.03
2022-11-21T14:43:42.919Z,16.03
2022-11-21T14:46:14.853Z,12.37
2022-11-21T14:48:43.224Z,12.70
2022-11-21T14:51:12.437Z,13.10
2022-11-21T14:53:41.439Z,14.93
2022-11-21T14:56:10.782Z,11.63
2022-11-21T14:58:38.611Z,13.50
2022-11-21T15:01:09.313Z,13.30
2022-11-21T15:03:36.908Z,10.73
2022-11-21T15:06:08.317Z,14.20
2022-11-21T15:11:30.743Z,14.00
2022-11-21T15:14:17.331Z,14.80
2022-11-21T15:16:47.550Z,14.07
2022-11-21T15:19:21.698Z,12.13
2022-11-21T15:21:50.344Z,11.30
2022-11-21T15:24:19.180Z,12.30
2022-11-21T15:26:47.705Z,16.13
2022-11-21T15:29:22.760Z,13.83
2022-11-21T15:34:58.612Z,15.87
2022-11-21T15:37:27.825Z,14.03
2022-11-21T15:39:55.758Z,13.60
2022-11-21T15:42:36.355Z,12.73
2022-11-21T15:45:20.745Z,15.77
2022-11-21T15:47:49.916Z,15.73
2022-11-21T15:50:18.263Z,12.97
2022-11-21T15:52:46.541Z,13.20
2022-11-21T15:55:17.481Z,14.17
2022-11-21T15:57:12.683Z,12.93
2022-11-21T15:57:45.130Z,12.73
2022-11-21T16:00:13.549Z,13.30
2022-11-21T16:02:41.549Z,13.10
2022-11-21T16:05:14.034Z,17.03
2022-11-21T16:07:42.057Z,15.00
2022-11-21T16:10:18.408Z,13.97
2022-11-21T16:12:50.535Z,12.97
2022-11-21T16:15:18.050Z,11.07
2022-11-21T16:17:47.363Z,14.67
2022-11-21T16:20:16.819Z,15.83
2022-11-21T16:22:47.683Z,16.50
2022-11-21T16:25:16.121Z,16.70
2022-11-21T16:27:43.776Z,11.50
2022-11-21T16:30:12.267Z,13.57
2022-11-21T16:32:40.025Z,11.93
2022-11-21T16:35:08.189Z,11.17
2022-11-21T16:37:37.047Z,13.37
2022-11-21T16:40:05.407Z,12.67
2022-11-21T16:42:33.187Z,14.23
2022-11-21T16:45:00.754Z,14.17
2022-11-21T16:47:28.528Z,15.73
2022-11-21T16:49:56.052Z,11.90
2022-11-21T16:52:23.851Z,10.90
2022-11-21T16:54:52.671Z,14.13
2022-11-21T16:57:20.388Z,13.70
2022-11-21T16:59:49.100Z,16.97
2022-11-21T17:02:16.602Z,13.77
2022-11-21T17:04:44.179Z,16.63
2022-11-21T17:07:11.840Z,14.57
2022-11-21T17:09:39.430Z,14.33
2022-11-21T17:12:08.997Z,13.20
2022-11-21T17:14:36.856Z,15.20
2022-11-21T17:17:04.484Z,15.30
2022-11-21T17:19:32.127Z,15.13
2022-11-21T17:22:00.321Z,15.30
2022-11-21T17:24:28.196Z,13.40
2022-11-21T17:26:57.220Z,16.23
2022-11-21T17:29:26.110Z,16.40
2022-11-21T17:31:53.735Z,12.90
2022-11-21T17:34:22.504Z,16.70
2022-11-21T17:36:50.580Z,17.87
2022-11-21T17:39:18.846Z,14.40
2022-11-21T17:41:46.513Z,16.20
2022-11-21T17:44:15.811Z,14.87
2022-11-21T17:46:44.748Z,17.23
2022-11-21T17:49:12.740Z,16.23
2022-11-21T17:51:41.252Z,15.13
2022-11-21T17:54:09.598Z,20.70
2022-11-21T17:56:43.862Z,15.77
2022-11-21T17:59:14.031Z,18.77
2022-11-21T18:01:42.625Z,22.70
2022-11-21T18:04:15.221Z,19.60
2022-11-21T18:06:43.271Z,18.43
2022-11-21T18:09:11.487Z,19.20
2022-11-21T18:11:40.566Z,23.33
2022-11-21T18:14:09.026Z,23.20
2022-11-21T18:16:37.168Z,19.93
2022-11-21T18:19:04.765Z,19.00
2022-11-21T18:21:35.335Z,20.40
2022-11-21T18:24:03.244Z,22.20
2022-11-21T18:26:31.986Z,22.10
2022-11-21T18:29:28.665Z,24.13
2022-11-21T18:31:49.278Z,27.80
2022-11-21T18:34:17.087Z,27.30
2022-11-21T18:36:47.575Z,24.33
2022-11-21T18:39:15.872Z,28.53
2022-11-21T18:41:44.010Z,23.63
2022-11-21T18:44:20.069Z,30.83
2022-11-21T18:46:49.512Z,28.67
2022-11-21T18:49:18.008Z,29.20
2022-11-21T18:51:48.429Z,41.00
2022-11-21T18:54:16.446Z,32.37
2022-11-21T18:56:43.974Z,34.63
2022-11-21T18:59:11.565Z,39.83
2022-11-21T19:01:40.295Z,38.53
2022-11-21T19:04:08.623Z,40.87
2022-11-21T19:06:36.564Z,37.90
2022-11-21T19:09:05.618Z,39.20
2022-11-21T19:11:33.203Z,37.77
2022-11-21T19:14:01.320Z,40.60
2022-11-21T19:16:31.007Z,44.40
2022-11-21T19:19:33.129Z,48.30
2022-11-21T19:21:47.200Z,47.90
2022-11-21T19:24:16.615Z,49.23
2022-11-21T19:26:44.554Z,42.27
2022-11-21T19:29:13.266Z,39.23
2022-11-21T19:31:45.804Z,39.27
2022-11-21T19:34:13.899Z,43.20
2022-11-21T19:36:41.773Z,38.47
2022-11-21T19:39:09.900Z,35.97
2022-11-21T19:41:39.179Z,40.23
2022-11-21T19:44:07.005Z,39.83
2022-11-21T19:46:36.169Z,42.40
2022-11-21T19:49:04.051Z,38.87
2022-11-21T19:51:33.494Z,41.90
2022-11-21T19:54:02.832Z,40.93
2022-11-21T19:56:30.616Z,40.23
2022-11-21T19:58:59.813Z,33.87
2022-11-21T20:01:29.380Z,42.67
2022-11-21T20:03:59.064Z,45.73
2022-11-21T20:06:28.266Z,34.10
2022-11-21T20:08:57.469Z,36.23
2022-11-21T20:11:26.332Z,32.03
2022-11-21T20:13:54.292Z,32.03
2022-11-21T20:16:24.820Z,32.60
2022-11-21T20:18:55.198Z,31.40
2022-11-21T20:21:23.001Z,37.83
2022-11-21T20:23:50.927Z,28.53
2022-11-21T20:26:20.791Z,35.50
2022-11-21T20:28:48.797Z,30.40
2022-11-21T20:31:18.346Z,31.63
2022-11-21T20:33:48.839Z,33.87
2022-11-21T20:36:18.626Z,30.40
2022-11-21T20:38:50.742Z,31.87
2022-11-21T20:41:18.390Z,33.03
2022-11-21T20:44:27.356Z,35.90
2022-11-21T20:46:34.294Z,30.30
2022-11-21T20:49:03.477Z,28.77
2022-11-21T20:54:18.775Z,30.37
2022-11-21T20:56:46.444Z,25.87
2022-11-21T20:59:14.427Z,31.40
2022-11-21T21:01:42.363Z,28.47
2022-11-21T21:04:12.128Z,26.33
2022-11-21T21:06:40.064Z,29.30
2022-11-21T21:09:07.819Z,22.93
2022-11-21T21:11:52.487Z,26.37
2022-11-21T21:14:21.259Z,32.07
2022-11-21T21:16:48.887Z,32.40
2022-11-21T21:19:18.371Z,31.40
2022-11-21T21:21:46.329Z,32.57
2022-11-21T21:24:14.483Z,27.43
2022-11-21T21:26:43.873Z,27.70
2022-11-21T21:29:12.731Z,29.67
2022-11-21T21:31:45.195Z,29.40
2022-11-21T21:34:14.689Z,34.43
2022-11-21T21:36:43.778Z,29.40
2022-11-21T21:39:11.403Z,30.13
2022-11-21T21:41:44.305Z,33.83
2022-11-21T21:44:11.962Z,31.83
2022-11-21T21:46:39.577Z,30.43
2022-11-21T21:49:07.320Z,30.93
2022-11-21T21:51:36.726Z,30.40
2022-11-21T21:54:06.331Z,29.60
2022-11-21T21:56:34.590Z,27.57
2022-11-21T21:59:02.460Z,32.30
2022-11-21T22:01:31.627Z,28.70
2022-11-21T22:04:01.045Z,29.20
2022-11-21T22:06:28.989Z,29.77
2022-11-21T22:08:57.241Z,26.70
2022-11-21T22:11:27.520Z,28.80
2022-11-21T22:13:56.820Z,34.07
2022-11-21T22:16:25.082Z,28.67
2022-11-21T22:18:52.852Z,29.07
2022-11-21T22:21:23.645Z,28.80
2022-11-21T22:24:22.866Z,33.97
2022-11-21T22:26:41.022Z,30.40
2022-11-21T22:29:08.884Z,31.47
2022-11-21T22:31:37.382Z,28.47
2022-11-21T22:34:05.054Z,26.27
2022-11-21T22:36:32.817Z,30.07
2022-11-21T22:39:00.417Z,28.27
2022-11-21T22:41:28.355Z,30.10
2022-11-21T22:43:58.688Z,32.83
2022-11-21T22:46:27.616Z,26.40
2022-11-21T22:48:55.520Z,28.60
2022-11-21T22:51:24.787Z,32.67
2022-11-21T22:53:53.121Z,39.57
2022-11-21T22:56:22.277Z,27.33
2022-11-21T22:58:50.476Z,23.27
2022-11-21T23:01:20.991Z,27.87
2022-11-21T23:03:49.001Z,26.97
2022-11-21T23:06:18.584Z,22.67
2022-11-21T23:08:46.553Z,23.97
2022-11-21T23:11:16.329Z,25.53
2022-11-21T23:13:46.169Z,23.57
2022-11-21T23:16:14.418Z,24.27
2022-11-21T23:18:46.034Z,20.67
2022-11-21T23:21:14.522Z,23.80
2022-11-21T23:23:43.893Z,19.70
2022-11-21T23:26:12.494Z,23.90
2022-11-21T23:28:40.179Z,23.00
2022-11-21T23:31:07.852Z,31.87
2022-11-21T23:33:35.463Z,27.27
2022-11-21T23:36:04.656Z,23.70
2022-11-21T23:38:32.223Z,21.83
2022-11-21T23:40:59.700Z,25.30
2022-11-21T23:43:27.262Z,24.27
2022-11-21T23:45:55.295Z,28.77
2022-11-21T23:48:24.035Z,30.83
2022-11-21T23:50:51.773Z,27.47
2022-11-21T23:53:21.231Z,25.97
2022-11-21T23:55:49.310Z,26.20
2022-11-21T23:58:17.037Z,25.57
